sensor_id;sensor_type;location;lat;lon;timestamp;pressure;altitude;pressure_sealevel;temperature;humidity
52291;BME280;39663;45.432;28.050;2023-01-27T00:00:21;101485.41;;;2.78;50.79
52291;BME280;39663;45.432;28.050;2023-01-27T00:00:54;101485.64;;;2.78;50.57
52291;BME280;39663;45.432;28.050;2023-01-27T00:01:25;101481.99;;;2.73;51.37
52291;BME280;39663;45.432;28.050;2023-01-27T00:01:57;101481.81;;;2.73;50.68
52291;BME280;39663;45.432;28.050;2023-01-27T00:02:29;101483.60;;;3.32;49.60
52291;BME280;39663;45.432;28.050;2023-01-27T00:03:02;101484.21;;;2.14;52.22
52291;BME280;39663;45.432;28.050;2023-01-27T00:03:34;101481.13;;;2.10;51.84
52291;BME280;39663;45.432;28.050;2023-01-27T00:04:06;101474.71;;;2.22;51.74
52291;BME280;39663;45.432;28.050;2023-01-27T00:04:38;101476.91;;;1.92;52.39
52291;BME280;39663;45.432;28.050;2023-01-27T00:05:11;101478.25;;;2.28;51.23
52291;BME280;39663;45.432;28.050;2023-01-27T00:05:44;101473.37;;;2.17;53.36
52291;BME280;39663;45.432;28.050;2023-01-27T00:06:16;101471.40;;;2.34;51.85
52291;BME280;39663;45.432;28.050;2023-01-27T00:06:48;101477.27;;;1.65;52.81
52291;BME280;39663;45.432;28.050;2023-01-27T00:07:20;101477.68;;;1.79;52.91
52291;BME280;39663;45.432;28.050;2023-01-27T00:07:52;101474.58;;;1.52;54.05
52291;BME280;39663;45.432;28.050;2023-01-27T00:08:24;101477.51;;;1.52;54.33
52291;BME280;39663;45.432;28.050;2023-01-27T00:08:55;101480.71;;;1.31;55.60
52291;BME280;39663;45.432;28.050;2023-01-27T00:09:28;101476.69;;;1.34;54.08
52291;BME280;39663;45.432;28.050;2023-01-27T00:09:59;101478.89;;;1.14;54.48
52291;BME280;39663;45.432;28.050;2023-01-27T00:10:31;101479.29;;;1.90;53.90
52291;BME280;39663;45.432;28.050;2023-01-27T00:11:03;101476.67;;;2.21;55.93
52291;BME280;39663;45.432;28.050;2023-01-27T00:11:35;101474.30;;;1.87;53.70
52291;BME280;39663;45.432;28.050;2023-01-27T00:12:16;101478.53;;;1.51;53.88
52291;BME280;39663;45.432;28.050;2023-01-27T00:12:49;101480.51;;;1.25;55.05
52291;BME280;39663;45.432;28.050;2023-01-27T00:13:21;101472.43;;;1.36;55.94
52291;BME280;39663;45.432;28.050;2023-01-27T00:13:54;101485.99;;;1.79;53.57
52291;BME280;39663;45.432;28.050;2023-01-27T00:14:25;101480.90;;;2.23;53.22
52291;BME280;39663;45.432;28.050;2023-01-27T00:14:57;101483.35;;;1.97;52.73
52291;BME280;39663;45.432;28.050;2023-01-27T00:15:31;101485.50;;;2.09;53.02
52291;BME280;39663;45.432;28.050;2023-01-27T00:16:04;101489.36;;;1.98;53.95
52291;BME280;39663;45.432;28.050;2023-01-27T00:16:35;101491.72;;;1.72;53.20
52291;BME280;39663;45.432;28.050;2023-01-27T00:17:07;101485.93;;;2.26;54.10
52291;BME280;39663;45.432;28.050;2023-01-27T00:17:39;101481.37;;;2.85;52.83
52291;BME280;39663;45.432;28.050;2023-01-27T00:18:11;101488.55;;;2.74;51.51
52291;BME280;39663;45.432;28.050;2023-01-27T00:18:43;101487.78;;;2.40;52.14
52291;BME280;39663;45.432;28.050;2023-01-27T00:19:15;101483.88;;;2.72;51.17
52291;BME280;39663;45.432;28.050;2023-01-27T00:19:47;101481.89;;;2.92;50.94
52291;BME280;39663;45.432;28.050;2023-01-27T00:20:19;101483.88;;;2.13;52.53
52291;BME280;39663;45.432;28.050;2023-01-27T00:20:51;101491.16;;;1.64;53.11
52291;BME280;39663;45.432;28.050;2023-01-27T00:21:23;101493.64;;;1.73;53.21
52291;BME280;39663;45.432;28.050;2023-01-27T00:21:55;101494.69;;;1.53;53.37
52291;BME280;39663;45.432;28.050;2023-01-27T00:22:27;101492.11;;;1.67;53.55
52291;BME280;39663;45.432;28.050;2023-01-27T00:22:58;101493.58;;;1.68;52.80
52291;BME280;39663;45.432;28.050;2023-01-27T00:23:30;101489.73;;;2.15;52.97
52291;BME280;39663;45.432;28.050;2023-01-27T00:24:02;101491.87;;;1.81;52.86
52291;BME280;39663;45.432;28.050;2023-01-27T00:24:34;101496.89;;;1.65;53.33
52291;BME280;39663;45.432;28.050;2023-01-27T00:25:07;101490.92;;;1.70;53.87
52291;BME280;39663;45.432;28.050;2023-01-27T00:25:39;101493.45;;;2.02;54.79
52291;BME280;39663;45.432;28.050;2023-01-27T00:26:12;101491.19;;;2.11;52.69
52291;BME280;39663;45.432;28.050;2023-01-27T00:26:45;101488.66;;;2.46;53.68
52291;BME280;39663;45.432;28.050;2023-01-27T00:27:17;101486.72;;;2.73;52.42
52291;BME280;39663;45.432;28.050;2023-01-27T00:27:48;101486.61;;;2.10;52.36
52291;BME280;39663;45.432;28.050;2023-01-27T00:28:20;101485.68;;;2.46;52.29
52291;BME280;39663;45.432;28.050;2023-01-27T00:28:52;101479.39;;;2.78;51.83
52291;BME280;39663;45.432;28.050;2023-01-27T00:29:24;101479.28;;;2.49;53.30
52291;BME280;39663;45.432;28.050;2023-01-27T00:29:56;101489.09;;;1.69;53.04
52291;BME280;39663;45.432;28.050;2023-01-27T00:30:28;101487.41;;;2.04;52.39
52291;BME280;39663;45.432;28.050;2023-01-27T00:31:00;101484.18;;;2.19;53.50
52291;BME280;39663;45.432;28.050;2023-01-27T00:31:32;101483.55;;;2.36;51.55
52291;BME280;39663;45.432;28.050;2023-01-27T00:32:05;101480.43;;;2.16;51.82
52291;BME280;39663;45.432;28.050;2023-01-27T00:32:37;101485.61;;;2.15;52.21
52291;BME280;39663;45.432;28.050;2023-01-27T00:33:09;101482.88;;;2.11;52.47
52291;BME280;39663;45.432;28.050;2023-01-27T00:33:41;101488.78;;;1.89;52.32
52291;BME280;39663;45.432;28.050;2023-01-27T00:34:12;101485.42;;;1.84;52.52
52291;BME280;39663;45.432;28.050;2023-01-27T00:34:45;101483.06;;;2.63;52.49
52291;BME280;39663;45.432;28.050;2023-01-27T00:35:17;101481.51;;;2.36;51.85
52291;BME280;39663;45.432;28.050;2023-01-27T00:35:49;101481.83;;;2.02;52.27
52291;BME280;39663;45.432;28.050;2023-01-27T00:36:27;101480.36;;;2.53;52.17
52291;BME280;39663;45.432;28.050;2023-01-27T00:36:59;101478.83;;;2.32;52.05
52291;BME280;39663;45.432;28.050;2023-01-27T00:37:31;101478.25;;;2.25;52.02
52291;BME280;39663;45.432;28.050;2023-01-27T00:38:02;101478.19;;;1.59;52.84
52291;BME280;39663;45.432;28.050;2023-01-27T00:38:35;101477.76;;;1.71;53.14
52291;BME280;39663;45.432;28.050;2023-01-27T00:39:09;101478.45;;;1.88;53.04
52291;BME280;39663;45.432;28.050;2023-01-27T00:39:42;101476.29;;;0.83;53.99
52291;BME280;39663;45.432;28.050;2023-01-27T00:40:15;101473.13;;;1.54;53.60
52291;BME280;39663;45.432;28.050;2023-01-27T00:40:48;101471.77;;;2.06;52.75
52291;BME280;39663;45.432;28.050;2023-01-27T00:41:20;101472.98;;;1.72;53.69
52291;BME280;39663;45.432;28.050;2023-01-27T00:41:52;101469.17;;;1.73;54.16
52291;BME280;39663;45.432;28.050;2023-01-27T00:42:24;101472.36;;;1.61;53.72
52291;BME280;39663;45.432;28.050;2023-01-27T00:42:56;101473.87;;;1.62;53.28
52291;BME280;39663;45.432;28.050;2023-01-27T00:43:27;101472.42;;;1.33;54.37
52291;BME280;39663;45.432;28.050;2023-01-27T00:43:59;101467.62;;;1.36;55.30
52291;BME280;39663;45.432;28.050;2023-01-27T00:44:32;101464.42;;;2.31;53.80
52291;BME280;39663;45.432;28.050;2023-01-27T00:45:04;101462.22;;;2.13;52.64
52291;BME280;39663;45.432;28.050;2023-01-27T00:45:36;101465.87;;;1.72;53.29
52291;BME280;39663;45.432;28.050;2023-01-27T00:46:08;101461.93;;;1.77;53.33
52291;BME280;39663;45.432;28.050;2023-01-27T00:46:41;101460.09;;;1.06;54.55
52291;BME280;39663;45.432;28.050;2023-01-27T00:47:13;101463.03;;;1.22;54.29
52291;BME280;39663;45.432;28.050;2023-01-27T00:47:46;101460.21;;;1.50;54.31
52291;BME280;39663;45.432;28.050;2023-01-27T00:48:18;101459.55;;;1.49;54.49
52291;BME280;39663;45.432;28.050;2023-01-27T00:48:50;101455.71;;;1.81;53.49
52291;BME280;39663;45.432;28.050;2023-01-27T00:49:24;101461.16;;;1.76;53.09
52291;BME280;39663;45.432;28.050;2023-01-27T00:49:56;101457.62;;;1.95;53.78
52291;BME280;39663;45.432;28.050;2023-01-27T00:50:28;101452.29;;;2.01;53.43
52291;BME280;39663;45.432;28.050;2023-01-27T00:50:59;101450.99;;;2.48;52.57
52291;BME280;39663;45.432;28.050;2023-01-27T00:51:31;101457.10;;;1.53;53.91
52291;BME280;39663;45.432;28.050;2023-01-27T00:52:03;101448.88;;;1.99;53.50
52291;BME280;39663;45.432;28.050;2023-01-27T00:52:35;101446.97;;;1.48;54.05
52291;BME280;39663;45.432;28.050;2023-01-27T00:53:07;101445.97;;;2.23;54.11
52291;BME280;39663;45.432;28.050;2023-01-27T00:53:40;101446.03;;;2.29;53.17
52291;BME280;39663;45.432;28.050;2023-01-27T00:54:12;101445.00;;;2.49;51.95
52291;BME280;39663;45.432;28.050;2023-01-27T00:54:44;101442.07;;;1.40;53.85
52291;BME280;39663;45.432;28.050;2023-01-27T00:55:15;101441.33;;;1.96;53.45
52291;BME280;39663;45.432;28.050;2023-01-27T00:55:48;101446.20;;;1.78;53.29
52291;BME280;39663;45.432;28.050;2023-01-27T00:56:20;101446.08;;;1.16;54.61
52291;BME280;39663;45.432;28.050;2023-01-27T00:56:51;101446.24;;;0.80;55.65
52291;BME280;39663;45.432;28.050;2023-01-27T00:57:23;101443.55;;;1.19;54.76
52291;BME280;39663;45.432;28.050;2023-01-27T00:57:55;101443.37;;;1.79;54.25
52291;BME280;39663;45.432;28.050;2023-01-27T00:58:27;101443.75;;;2.06;53.60
52291;BME280;39663;45.432;28.050;2023-01-27T00:58:59;101443.32;;;2.14;52.69
52291;BME280;39663;45.432;28.050;2023-01-27T00:59:31;101443.22;;;1.71;53.90
52291;BME280;39663;45.432;28.050;2023-01-27T01:00:04;101444.84;;;1.55;54.22
52291;BME280;39663;45.432;28.050;2023-01-27T01:00:36;101441.27;;;0.99;55.13
52291;BME280;39663;45.432;28.050;2023-01-27T01:01:12;101445.13;;;1.60;54.34
52291;BME280;39663;45.432;28.050;2023-01-27T01:01:44;101439.93;;;1.26;54.93
52291;BME280;39663;45.432;28.050;2023-01-27T01:02:15;101440.06;;;1.09;54.66
52291;BME280;39663;45.432;28.050;2023-01-27T01:02:47;101435.86;;;1.80;54.25
52291;BME280;39663;45.432;28.050;2023-01-27T01:03:20;101434.70;;;2.33;53.56
52291;BME280;39663;45.432;28.050;2023-01-27T01:03:52;101433.19;;;2.79;53.49
52291;BME280;39663;45.432;28.050;2023-01-27T01:04:24;101431.85;;;2.62;51.78
52291;BME280;39663;45.432;28.050;2023-01-27T01:04:55;101429.50;;;2.32;52.57
52291;BME280;39663;45.432;28.050;2023-01-27T01:05:27;101428.46;;;2.18;52.41
52291;BME280;39663;45.432;28.050;2023-01-27T01:06:00;101424.58;;;1.85;53.45
52291;BME280;39663;45.432;28.050;2023-01-27T01:06:33;101426.85;;;1.85;53.22
52291;BME280;39663;45.432;28.050;2023-01-27T01:07:04;101420.38;;;1.85;54.54
52291;BME280;39663;45.432;28.050;2023-01-27T01:07:36;101415.19;;;2.64;52.58
52291;BME280;39663;45.432;28.050;2023-01-27T01:08:08;101422.09;;;2.09;54.86
52291;BME280;39663;45.432;28.050;2023-01-27T01:08:40;101421.74;;;1.10;53.93
52291;BME280;39663;45.432;28.050;2023-01-27T01:09:12;101421.77;;;0.70;54.91
52291;BME280;39663;45.432;28.050;2023-01-27T01:09:44;101423.36;;;0.75;55.57
52291;BME280;39663;45.432;28.050;2023-01-27T01:10:16;101427.50;;;0.36;56.48
52291;BME280;39663;45.432;28.050;2023-01-27T01:10:48;101427.28;;;0.47;57.35
52291;BME280;39663;45.432;28.050;2023-01-27T01:11:21;101422.44;;;1.31;54.74
52291;BME280;39663;45.432;28.050;2023-01-27T01:11:53;101422.24;;;0.62;56.23
52291;BME280;39663;45.432;28.050;2023-01-27T01:12:25;101425.47;;;1.31;56.59
52291;BME280;39663;45.432;28.050;2023-01-27T01:12:57;101418.69;;;1.96;53.98
52291;BME280;39663;45.432;28.050;2023-01-27T01:13:29;101416.44;;;1.86;53.55
52291;BME280;39663;45.432;28.050;2023-01-27T01:14:01;101413.64;;;1.91;53.74
52291;BME280;39663;45.432;28.050;2023-01-27T01:14:33;101414.82;;;2.01;54.64
52291;BME280;39663;45.432;28.050;2023-01-27T01:15:05;101419.22;;;1.45;53.80
52291;BME280;39663;45.432;28.050;2023-01-27T01:15:38;101422.47;;;0.78;55.31
52291;BME280;39663;45.432;28.050;2023-01-27T01:16:12;101420.23;;;0.96;55.13
52291;BME280;39663;45.432;28.050;2023-01-27T01:16:45;101419.00;;;0.70;55.55
52291;BME280;39663;45.432;28.050;2023-01-27T01:17:16;101418.51;;;0.92;55.61
52291;BME280;39663;45.432;28.050;2023-01-27T01:17:48;101418.33;;;1.55;54.46
52291;BME280;39663;45.432;28.050;2023-01-27T01:18:20;101415.34;;;1.58;54.45
52291;BME280;39663;45.432;28.050;2023-01-27T01:18:52;101419.16;;;1.07;54.67
52291;BME280;39663;45.432;28.050;2023-01-27T01:19:25;101420.42;;;0.09;56.24
52291;BME280;39663;45.432;28.050;2023-01-27T01:19:56;101423.29;;;-0.14;56.52
52291;BME280;39663;45.432;28.050;2023-01-27T01:20:28;101424.33;;;-0.14;56.79
52291;BME280;39663;45.432;28.050;2023-01-27T01:21:00;101419.52;;;0.36;56.84
52291;BME280;39663;45.432;28.050;2023-01-27T01:21:32;101422.86;;;0.55;55.94
52291;BME280;39663;45.432;28.050;2023-01-27T01:22:04;101422.76;;;0.87;55.92
52291;BME280;39663;45.432;28.050;2023-01-27T01:22:36;101420.93;;;0.91;55.53
52291;BME280;39663;45.432;28.050;2023-01-27T01:23:09;101416.46;;;1.45;55.92
52291;BME280;39663;45.432;28.050;2023-01-27T01:23:44;101417.52;;;0.94;53.92
52291;BME280;39663;45.432;28.050;2023-01-27T01:24:16;101416.59;;;1.08;54.67
52291;BME280;39663;45.432;28.050;2023-01-27T01:24:48;101419.90;;;0.75;54.85
52291;BME280;39663;45.432;28.050;2023-01-27T01:25:19;101421.45;;;1.17;54.06
52291;BME280;39663;45.432;28.050;2023-01-27T01:25:53;101420.83;;;1.41;53.83
52291;BME280;39663;45.432;28.050;2023-01-27T01:26:25;101419.31;;;1.64;54.25
52291;BME280;39663;45.432;28.050;2023-01-27T01:26:57;101419.07;;;1.31;53.95
52291;BME280;39663;45.432;28.050;2023-01-27T01:27:28;101415.17;;;1.23;53.83
52291;BME280;39663;45.432;28.050;2023-01-27T01:28:00;101411.95;;;2.04;52.78
52291;BME280;39663;45.432;28.050;2023-01-27T01:28:32;101408.45;;;1.67;53.21
52291;BME280;39663;45.432;28.050;2023-01-27T01:29:04;101411.00;;;1.21;54.49
52291;BME280;39663;45.432;28.050;2023-01-27T01:29:36;101415.50;;;0.86;55.30
52291;BME280;39663;45.432;28.050;2023-01-27T01:30:09;101411.39;;;1.51;54.47
52291;BME280;39663;45.432;28.050;2023-01-27T01:30:40;101410.80;;;1.55;54.12
52291;BME280;39663;45.432;28.050;2023-01-27T01:31:14;101413.08;;;0.86;54.27
52291;BME280;39663;45.432;28.050;2023-01-27T01:31:50;101409.46;;;0.66;55.46
52291;BME280;39663;45.432;28.050;2023-01-27T01:32:22;101409.29;;;1.52;54.74
52291;BME280;39663;45.432;28.050;2023-01-27T01:32:55;101407.88;;;1.75;55.41
52291;BME280;39663;45.432;28.050;2023-01-27T01:33:27;101407.80;;;1.50;54.09
52291;BME280;39663;45.432;28.050;2023-01-27T01:33:59;101409.60;;;1.53;54.05
52291;BME280;39663;45.432;28.050;2023-01-27T01:34:31;101406.16;;;1.58;54.31
52291;BME280;39663;45.432;28.050;2023-01-27T01:35:03;101407.13;;;2.20;56.12
52291;BME280;39663;45.432;28.050;2023-01-27T01:35:38;101406.56;;;1.93;53.78
52291;BME280;39663;45.432;28.050;2023-01-27T01:36:12;101402.34;;;2.15;53.52
52291;BME280;39663;45.432;28.050;2023-01-27T01:36:44;101403.96;;;1.27;54.13
52291;BME280;39663;45.432;28.050;2023-01-27T01:37:16;101405.48;;;1.40;54.49
52291;BME280;39663;45.432;28.050;2023-01-27T01:37:48;101403.85;;;0.94;55.06
52291;BME280;39663;45.432;28.050;2023-01-27T01:38:19;101407.74;;;1.02;54.79
52291;BME280;39663;45.432;28.050;2023-01-27T01:38:55;101402.95;;;1.02;55.50
52291;BME280;39663;45.432;28.050;2023-01-27T01:39:28;101403.04;;;1.44;54.35
52291;BME280;39663;45.432;28.050;2023-01-27T01:40:00;101401.99;;;1.87;53.81
52291;BME280;39663;45.432;28.050;2023-01-27T01:40:31;101398.02;;;1.65;54.22
52291;BME280;39663;45.432;28.050;2023-01-27T01:41:04;101401.02;;;1.73;53.41
52291;BME280;39663;45.432;28.050;2023-01-27T01:41:36;101404.40;;;1.67;53.62
52291;BME280;39663;45.432;28.050;2023-01-27T01:42:08;101406.85;;;1.15;54.38
52291;BME280;39663;45.432;28.050;2023-01-27T01:42:57;101405.59;;;0.63;55.40
52291;BME280;39663;45.432;28.050;2023-01-27T01:43:29;101402.52;;;0.84;55.30
52291;BME280;39663;45.432;28.050;2023-01-27T01:44:18;101403.14;;;1.15;55.89
52291;BME280;39663;45.432;28.050;2023-01-27T01:45:41;101399.44;;;1.83;53.65
52291;BME280;39663;45.432;28.050;2023-01-27T01:46:16;101396.18;;;2.06;53.00
52291;BME280;39663;45.432;28.050;2023-01-27T01:46:48;101396.06;;;2.09;53.54
52291;BME280;39663;45.432;28.050;2023-01-27T01:47:19;101397.95;;;1.22;54.32
52291;BME280;39663;45.432;28.050;2023-01-27T01:47:51;101394.38;;;1.19;55.10
52291;BME280;39663;45.432;28.050;2023-01-27T01:48:29;101394.87;;;1.01;54.82
52291;BME280;39663;45.432;28.050;2023-01-27T01:49:02;101394.24;;;1.07;55.86
52291;BME280;39663;45.432;28.050;2023-01-27T01:49:37;101397.34;;;0.82;55.20
52291;BME280;39663;45.432;28.050;2023-01-27T01:50:10;101393.74;;;0.59;56.52
52291;BME280;39663;45.432;28.050;2023-01-27T01:50:44;101398.92;;;0.23;56.60
52291;BME280;39663;45.432;28.050;2023-01-27T01:51:21;101400.81;;;0.20;57.27
52291;BME280;39663;45.432;28.050;2023-01-27T01:51:58;101392.82;;;0.73;56.20
52291;BME280;39663;45.432;28.050;2023-01-27T01:52:32;101391.40;;;0.92;55.27
52291;BME280;39663;45.432;28.050;2023-01-27T01:53:06;101393.37;;;0.68;56.11
52291;BME280;39663;45.432;28.050;2023-01-27T01:53:44;101393.57;;;1.20;55.41
52291;BME280;39663;45.432;28.050;2023-01-27T01:54:18;101390.52;;;1.27;54.67
52291;BME280;39663;45.432;28.050;2023-01-27T01:54:54;101387.72;;;1.78;53.53
52291;BME280;39663;45.432;28.050;2023-01-27T01:55:27;101388.54;;;2.05;53.20
52291;BME280;39663;45.432;28.050;2023-01-27T01:56:05;101385.67;;;1.24;54.30
52291;BME280;39663;45.432;28.050;2023-01-27T01:56:40;101388.71;;;1.16;55.00
52291;BME280;39663;45.432;28.050;2023-01-27T01:57:16;101388.32;;;1.30;54.25
52291;BME280;39663;45.432;28.050;2023-01-27T01:57:52;101389.58;;;1.07;55.50
52291;BME280;39663;45.432;28.050;2023-01-27T01:58:25;101387.08;;;1.08;55.39
52291;BME280;39663;45.432;28.050;2023-01-27T01:59:05;101386.31;;;1.15;55.71
52291;BME280;39663;45.432;28.050;2023-01-27T01:59:43;101386.58;;;1.26;55.02
52291;BME280;39663;45.432;28.050;2023-01-27T02:00:17;101382.98;;;1.63;54.33
52291;BME280;39663;45.432;28.050;2023-01-27T02:00:49;101381.95;;;1.85;53.66
52291;BME280;39663;45.432;28.050;2023-01-27T02:01:20;101380.65;;;1.69;53.96
52291;BME280;39663;45.432;28.050;2023-01-27T02:01:55;101378.04;;;1.44;54.00
52291;BME280;39663;45.432;28.050;2023-01-27T02:02:27;101377.63;;;0.89;54.84
52291;BME280;39663;45.432;28.050;2023-01-27T02:03:00;101371.48;;;1.31;55.77
52291;BME280;39663;45.432;28.050;2023-01-27T02:03:33;101378.05;;;1.62;54.82
52291;BME280;39663;45.432;28.050;2023-01-27T02:04:12;101376.80;;;0.83;55.34
52291;BME280;39663;45.432;28.050;2023-01-27T02:04:47;101373.92;;;1.57;53.20
52291;BME280;39663;45.432;28.050;2023-01-27T02:05:25;101370.84;;;1.97;54.15
52291;BME280;39663;45.432;28.050;2023-01-27T02:05:58;101367.67;;;2.28;52.95
52291;BME280;39663;45.432;28.050;2023-01-27T02:06:38;101371.14;;;2.56;52.96
52291;BME280;39663;45.432;28.050;2023-01-27T02:07:17;101368.78;;;2.68;52.91
52291;BME280;39663;45.432;28.050;2023-01-27T02:07:56;101366.17;;;2.56;54.41
52291;BME280;39663;45.432;28.050;2023-01-27T02:08:31;101362.17;;;2.30;53.19
52291;BME280;39663;45.432;28.050;2023-01-27T02:09:04;101361.16;;;2.04;52.76
52291;BME280;39663;45.432;28.050;2023-01-27T02:09:37;101363.43;;;2.55;52.22
52291;BME280;39663;45.432;28.050;2023-01-27T02:10:10;101362.74;;;2.25;52.87
52291;BME280;39663;45.432;28.050;2023-01-27T02:10:42;101355.33;;;1.98;52.44
52291;BME280;39663;45.432;28.050;2023-01-27T02:11:14;101360.76;;;2.13;52.71
52291;BME280;39663;45.432;28.050;2023-01-27T02:11:45;101355.03;;;2.40;52.11
52291;BME280;39663;45.432;28.050;2023-01-27T02:12:17;101361.36;;;2.21;52.01
52291;BME280;39663;45.432;28.050;2023-01-27T02:12:49;101356.78;;;1.49;53.75
52291;BME280;39663;45.432;28.050;2023-01-27T02:13:20;101352.91;;;2.19;53.09
52291;BME280;39663;45.432;28.050;2023-01-27T02:13:52;101351.96;;;1.59;53.12
52291;BME280;39663;45.432;28.050;2023-01-27T02:14:24;101357.10;;;2.11;52.34
52291;BME280;39663;45.432;28.050;2023-01-27T02:14:56;101357.52;;;1.43;53.49
52291;BME280;39663;45.432;28.050;2023-01-27T02:15:28;101354.35;;;1.18;54.25
52291;BME280;39663;45.432;28.050;2023-01-27T02:16:00;101353.98;;;1.93;52.98
52291;BME280;39663;45.432;28.050;2023-01-27T02:16:32;101357.61;;;2.16;52.53
52291;BME280;39663;45.432;28.050;2023-01-27T02:17:04;101361.11;;;1.51;53.14
52291;BME280;39663;45.432;28.050;2023-01-27T02:17:36;101359.80;;;1.54;53.48
52291;BME280;39663;45.432;28.050;2023-01-27T02:18:08;101359.31;;;2.08;53.81
52291;BME280;39663;45.432;28.050;2023-01-27T02:18:41;101361.17;;;1.25;54.44
52291;BME280;39663;45.432;28.050;2023-01-27T02:19:21;101358.23;;;1.58;53.78
52291;BME280;39663;45.432;28.050;2023-01-27T02:20:02;101358.63;;;2.30;52.20
52291;BME280;39663;45.432;28.050;2023-01-27T02:20:41;101355.29;;;2.70;51.28
52291;BME280;39663;45.432;28.050;2023-01-27T02:21:13;101358.74;;;2.58;51.85
52291;BME280;39663;45.432;28.050;2023-01-27T02:21:45;101361.28;;;3.30;51.72
52291;BME280;39663;45.432;28.050;2023-01-27T02:22:26;101360.06;;;3.27;50.25
52291;BME280;39663;45.432;28.050;2023-01-27T02:23:06;101360.16;;;2.76;51.61
52291;BME280;39663;45.432;28.050;2023-01-27T02:23:49;101363.37;;;2.55;51.18
52291;BME280;39663;45.432;28.050;2023-01-27T02:24:29;101361.67;;;2.58;52.16
52291;BME280;39663;45.432;28.050;2023-01-27T02:25:08;101360.57;;;3.29;49.85
52291;BME280;39663;45.432;28.050;2023-01-27T02:25:47;101360.67;;;3.51;49.17
52291;BME280;39663;45.432;28.050;2023-01-27T02:26:22;101355.49;;;3.14;50.17
52291;BME280;39663;45.432;28.050;2023-01-27T02:26:56;101358.23;;;2.69;50.03
52291;BME280;39663;45.432;28.050;2023-01-27T02:27:27;101355.01;;;1.87;51.68
52291;BME280;39663;45.432;28.050;2023-01-27T02:27:59;101356.54;;;2.79;52.08
52291;BME280;39663;45.432;28.050;2023-01-27T02:28:31;101353.24;;;3.09;50.79
52291;BME280;39663;45.432;28.050;2023-01-27T02:29:06;101350.62;;;3.02;49.95
52291;BME280;39663;45.432;28.050;2023-01-27T02:29:38;101348.47;;;3.30;50.42
52291;BME280;39663;45.432;28.050;2023-01-27T02:30:10;101345.28;;;2.79;51.10
52291;BME280;39663;45.432;28.050;2023-01-27T02:30:43;101346.76;;;2.47;51.41
52291;BME280;39663;45.432;28.050;2023-01-27T02:31:14;101349.55;;;2.79;50.55
52291;BME280;39663;45.432;28.050;2023-01-27T02:31:46;101351.06;;;2.87;50.91
52291;BME280;39663;45.432;28.050;2023-01-27T02:32:25;101352.24;;;2.62;50.84
52291;BME280;39663;45.432;28.050;2023-01-27T02:32:57;101346.85;;;2.71;51.31
52291;BME280;39663;45.432;28.050;2023-01-27T02:33:29;101352.49;;;2.59;50.36
52291;BME280;39663;45.432;28.050;2023-01-27T02:34:03;101354.03;;;2.38;51.37
52291;BME280;39663;45.432;28.050;2023-01-27T02:34:37;101355.20;;;1.72;52.31
52291;BME280;39663;45.432;28.050;2023-01-27T02:35:12;101353.97;;;2.10;51.94
52291;BME280;39663;45.432;28.050;2023-01-27T02:35:54;101353.50;;;2.46;52.09
52291;BME280;39663;45.432;28.050;2023-01-27T02:36:30;101355.95;;;2.83;50.20
52291;BME280;39663;45.432;28.050;2023-01-27T02:37:05;101360.07;;;2.77;50.68
52291;BME280;39663;45.432;28.050;2023-01-27T02:37:39;101359.37;;;2.06;51.54
52291;BME280;39663;45.432;28.050;2023-01-27T02:38:12;101359.21;;;1.98;51.61
52291;BME280;39663;45.432;28.050;2023-01-27T02:38:47;101361.16;;;2.20;53.07
52291;BME280;39663;45.432;28.050;2023-01-27T02:39:21;101356.53;;;2.58;51.94
52291;BME280;39663;45.432;28.050;2023-01-27T02:39:57;101358.24;;;2.50;51.21
52291;BME280;39663;45.432;28.050;2023-01-27T02:40:31;101355.96;;;2.77;50.91
52291;BME280;39663;45.432;28.050;2023-01-27T02:41:08;101358.91;;;2.79;51.50
52291;BME280;39663;45.432;28.050;2023-01-27T02:41:43;101358.76;;;1.73;52.74
52291;BME280;39663;45.432;28.050;2023-01-27T02:42:17;101361.94;;;2.42;52.04
52291;BME280;39663;45.432;28.050;2023-01-27T02:42:50;101359.19;;;2.22;51.32
52291;BME280;39663;45.432;28.050;2023-01-27T02:43:24;101359.84;;;1.53;52.50
52291;BME280;39663;45.432;28.050;2023-01-27T02:43:56;101357.34;;;1.71;53.70
52291;BME280;39663;45.432;28.050;2023-01-27T02:44:27;101355.96;;;1.30;53.57
52291;BME280;39663;45.432;28.050;2023-01-27T02:44:59;101354.39;;;1.30;54.57
52291;BME280;39663;45.432;28.050;2023-01-27T02:45:30;101354.74;;;1.45;53.25
52291;BME280;39663;45.432;28.050;2023-01-27T02:46:02;101345.95;;;1.17;53.89
52291;BME280;39663;45.432;28.050;2023-01-27T02:46:35;101345.38;;;1.91;54.99
52291;BME280;39663;45.432;28.050;2023-01-27T02:47:06;101340.65;;;2.26;52.05
52291;BME280;39663;45.432;28.050;2023-01-27T02:47:38;101342.56;;;1.60;53.23
52291;BME280;39663;45.432;28.050;2023-01-27T02:48:10;101342.74;;;1.44;54.58
52291;BME280;39663;45.432;28.050;2023-01-27T02:48:42;101342.20;;;1.69;53.29
52291;BME280;39663;45.432;28.050;2023-01-27T02:49:14;101337.50;;;1.38;53.70
52291;BME280;39663;45.432;28.050;2023-01-27T02:49:46;101338.53;;;0.87;54.99
52291;BME280;39663;45.432;28.050;2023-01-27T02:50:17;101330.98;;;1.48;54.88
52291;BME280;39663;45.432;28.050;2023-01-27T02:50:49;101326.46;;;2.04;53.23
52291;BME280;39663;45.432;28.050;2023-01-27T02:51:21;101325.44;;;2.26;52.40
52291;BME280;39663;45.432;28.050;2023-01-27T02:51:52;101320.68;;;1.52;53.34
52291;BME280;39663;45.432;28.050;2023-01-27T02:52:24;101324.17;;;2.12;52.42
52291;BME280;39663;45.432;28.050;2023-01-27T02:52:56;101324.14;;;1.61;52.82
52291;BME280;39663;45.432;28.050;2023-01-27T02:53:28;101324.10;;;1.94;52.10
52291;BME280;39663;45.432;28.050;2023-01-27T02:53:59;101324.65;;;1.65;52.79